createdAt,value
2017-11-14T00:02:25.822Z,95364.97
2017-11-14T00:04:54.172Z,95364.56
2017-11-14T00:07:22.567Z,95370.96
2017-11-14T00:09:50.935Z,95371.02
2017-11-14T00:12:19.284Z,95374.03
2017-11-14T00:14:47.672Z,95377.11
2017-11-14T00:17:16.046Z,95380.16
2017-11-14T00:19:44.438Z,95381.84
2017-11-14T00:22:12.786Z,95380.00
2017-11-14T00:24:41.161Z,95378.19
2017-11-14T00:27:09.560Z,95385.59
2017-11-14T00:29:37.900Z,95385.51
2017-11-14T00:32:06.262Z,95387.55
2017-11-14T00:34:34.625Z,95389.45
2017-11-14T00:37:02.976Z,95381.07
2017-11-14T00:39:31.335Z,95385.05
2017-11-14T00:41:59.679Z,95390.24
2017-11-14T00:44:28.045Z,95386.96
2017-11-14T00:46:56.393Z,95386.16
2017-11-14T00:49:24.743Z,95395.38
2017-11-14T00:51:53.100Z,95394.66
2017-11-14T00:54:21.449Z,95393.46
2017-11-14T00:56:49.810Z,95397.75
2017-11-14T00:59:18.187Z,95396.75
2017-11-14T01:01:46.541Z,95398.53
2017-11-14T01:04:14.894Z,95396.00
2017-11-14T01:06:43.231Z,95398.94
2017-11-14T01:09:11.592Z,95403.23
2017-11-14T01:11:39.948Z,95402.03
2017-11-14T01:14:08.305Z,95403.16
2017-11-14T01:16:36.647Z,95412.11
2017-11-14T01:19:04.996Z,95411.48
2017-11-14T01:21:33.346Z,95419.45
2017-11-14T01:24:01.725Z,95420.62
2017-11-14T01:26:30.065Z,95427.04
2017-11-14T01:28:58.441Z,95424.31
2017-11-14T01:31:26.811Z,95427.66
2017-11-14T01:33:55.163Z,95424.56
2017-11-14T01:36:23.527Z,95420.28
2017-11-14T01:38:51.898Z,95421.19
2017-11-14T01:41:20.256Z,95417.42
2017-11-14T01:43:48.623Z,95415.22
2017-11-14T01:46:16.969Z,95406.16
2017-11-14T01:48:45.348Z,95413.49
2017-11-14T01:51:13.695Z,95411.42
2017-11-14T01:53:42.040Z,95413.96
2017-11-14T01:56:10.389Z,95410.08
2017-11-14T01:58:38.759Z,95409.23
2017-11-14T02:01:23.400Z,95413.97
2017-11-14T02:03:52.025Z,95401.36
2017-11-14T02:06:21.243Z,95403.56
2017-11-14T02:08:50.207Z,95405.77
2017-11-14T02:11:19.178Z,95405.33
2017-11-14T02:13:47.846Z,95402.66
2017-11-14T02:16:16.223Z,95407.17
2017-11-14T02:18:44.795Z,95408.95
2017-11-14T02:21:15.863Z,95409.61
2017-11-14T02:23:45.092Z,95410.91
2017-11-14T02:26:13.948Z,95414.92
2017-11-14T02:28:42.305Z,95414.53
2017-11-14T02:31:10.659Z,95419.91
2017-11-14T02:33:39.023Z,95420.11
2017-11-14T02:36:07.373Z,95419.09
2017-11-14T02:38:35.747Z,95423.95
2017-11-14T02:41:04.139Z,95423.89
2017-11-14T02:43:32.795Z,95425.30
2017-11-14T02:46:01.174Z,95426.38
2017-11-14T02:48:29.524Z,95430.41
2017-11-14T02:50:58.105Z,95434.14
2017-11-14T02:53:27.323Z,95437.88
2017-11-14T02:55:55.686Z,95427.13
2017-11-14T02:58:24.851Z,95433.17
2017-11-14T03:00:53.238Z,95437.99
2017-11-14T03:03:21.604Z,95431.44
2017-11-14T03:05:49.984Z,95434.70
2017-11-14T03:08:18.388Z,95435.56
2017-11-14T03:10:46.753Z,95430.11
2017-11-14T03:13:15.983Z,95436.34
2017-11-14T03:15:44.366Z,95440.58
2017-11-14T03:18:13.433Z,95444.80
2017-11-14T03:20:41.837Z,95443.46
2017-11-14T03:23:10.202Z,95440.77
2017-11-14T03:25:38.584Z,95442.02
2017-11-14T03:28:06.930Z,95443.66
2017-11-14T03:30:35.309Z,95442.25
2017-11-14T03:33:03.681Z,95443.16
2017-11-14T03:35:32.032Z,95436.18
2017-11-14T03:38:00.417Z,95441.66
2017-11-14T03:40:28.776Z,95445.92
2017-11-14T03:42:57.136Z,95450.45
2017-11-14T03:45:26.234Z,95456.74
2017-11-14T03:47:54.584Z,95447.92
2017-11-14T03:50:24.179Z,95451.78
2017-11-14T03:52:52.527Z,95462.31
2017-11-14T03:55:21.167Z,95462.64
2017-11-14T03:57:49.552Z,95473.09
2017-11-14T04:00:28.277Z,95470.86
2017-11-14T04:02:56.624Z,95464.94
2017-11-14T04:05:24.982Z,95470.54
2017-11-14T04:07:53.325Z,95472.05
2017-11-14T04:10:21.684Z,95470.44
2017-11-14T04:12:50.677Z,95470.46
2017-11-14T04:15:19.624Z,95470.14
2017-11-14T04:17:48.973Z,95473.68
2017-11-14T04:20:17.359Z,95478.11
2017-11-14T04:22:45.741Z,95470.56
2017-11-14T04:25:15.433Z,95469.45
2017-11-14T04:27:47.945Z,95472.86
2017-11-14T04:30:21.517Z,95474.78
2017-11-14T04:32:51.720Z,95477.81
2017-11-14T04:35:20.867Z,95479.88
2017-11-14T04:37:49.271Z,95476.86
2017-11-14T04:40:18.279Z,95481.65
2017-11-14T04:42:46.628Z,95490.56
2017-11-14T04:45:15.010Z,95490.05
2017-11-14T04:47:44.076Z,95486.86
2017-11-14T04:50:12.448Z,95488.70
2017-11-14T04:52:40.824Z,95488.77
2017-11-14T04:55:10.092Z,95486.50
2017-11-14T04:57:38.436Z,95486.80
2017-11-14T05:00:08.407Z,95490.63
2017-11-14T05:02:54.424Z,95491.48
2017-11-14T05:05:51.111Z,95490.30
2017-11-14T05:08:19.494Z,95490.38
2017-11-14T05:10:48.114Z,95489.72
2017-11-14T05:13:16.457Z,95485.59
2017-11-14T05:15:44.800Z,95483.16
2017-11-14T05:18:13.177Z,95490.86
2017-11-14T05:20:41.559Z,95492.60
2017-11-14T05:23:10.278Z,95496.08
2017-11-14T05:28:14.197Z,95499.82
2017-11-14T05:30:42.535Z,95497.89
2017-11-14T05:33:10.921Z,95499.98
2017-11-14T05:35:39.343Z,95504.21
2017-11-14T05:38:07.712Z,95504.71
2017-11-14T05:40:37.079Z,95506.47
2017-11-14T05:43:07.731Z,95509.62
2017-11-14T05:45:38.920Z,95508.69
2017-11-14T05:48:07.288Z,95516.36
2017-11-14T05:50:35.684Z,95512.48
2017-11-14T05:53:04.067Z,95506.04
2017-11-14T05:55:32.432Z,95510.75
2017-11-14T05:58:00.829Z,95510.34
2017-11-14T06:00:29.225Z,95512.56
2017-11-14T06:02:57.818Z,95506.02
2017-11-14T06:05:26.409Z,95508.64
2017-11-14T06:07:54.808Z,95505.01
2017-11-14T06:10:23.163Z,95504.37
2017-11-14T06:12:51.527Z,95515.88
2017-11-14T06:15:19.899Z,95508.99
2017-11-14T06:17:48.277Z,95517.44
2017-11-14T06:20:16.619Z,95516.20
2017-11-14T06:22:45.021Z,95511.75
2017-11-14T06:25:13.383Z,95505.32
2017-11-14T06:27:42.423Z,95518.41
2017-11-14T06:30:11.739Z,95528.99
2017-11-14T06:32:40.949Z,95524.95
2017-11-14T06:35:09.724Z,95527.55
2017-11-14T06:37:38.492Z,95528.25
2017-11-14T06:40:06.851Z,95529.36
2017-11-14T06:42:35.213Z,95537.64
2017-11-14T06:45:04.509Z,95535.95
2017-11-14T06:47:32.897Z,95532.61
2017-11-14T06:50:01.957Z,95532.49
2017-11-14T06:52:30.892Z,95535.84
2017-11-14T06:54:59.287Z,95547.58
2017-11-14T06:57:27.648Z,95549.98
2017-11-14T06:59:55.992Z,95544.38
2017-11-14T07:02:25.245Z,95545.08
2017-11-14T07:04:54.337Z,95552.02
2017-11-14T07:07:22.685Z,95557.66
2017-11-14T07:09:51.046Z,95550.70
2017-11-14T07:12:19.432Z,95545.09
2017-11-14T07:14:49.268Z,95549.56
2017-11-14T07:17:18.653Z,95550.70
2017-11-14T07:19:47.474Z,95560.75
2017-11-14T07:22:16.442Z,95554.97
2017-11-14T07:24:45.422Z,95556.13
2017-11-14T07:27:13.838Z,95559.54
2017-11-14T07:29:42.361Z,95559.14
2017-11-14T07:32:11.552Z,95565.67
2017-11-14T07:34:39.915Z,95564.88
2017-11-14T07:37:09.117Z,95560.70
2017-11-14T07:39:37.488Z,95572.93
2017-11-14T07:42:05.869Z,95567.63
2017-11-14T07:44:35.129Z,95566.05
2017-11-14T07:47:03.524Z,95569.05
2017-11-14T07:49:31.879Z,95574.11
2017-11-14T07:52:00.316Z,95585.86
2017-11-14T07:54:28.673Z,95587.55
2017-11-14T07:56:59.147Z,95589.93
2017-11-14T07:59:27.511Z,95591.74
2017-11-14T08:01:55.897Z,95595.35
2017-11-14T08:04:24.284Z,95594.97
2017-11-14T08:06:52.680Z,95598.96
2017-11-14T08:09:21.040Z,95607.46
2017-11-14T08:11:49.461Z,95607.20
2017-11-14T08:14:17.839Z,95606.68
2017-11-14T08:16:46.242Z,95614.95
2017-11-14T08:19:14.638Z,95615.83
2017-11-14T08:21:43.872Z,95614.62
2017-11-14T08:24:12.218Z,95605.34
2017-11-14T08:26:40.592Z,95603.20
2017-11-14T08:29:09.780Z,95604.27
2017-11-14T08:31:38.170Z,95597.80
2017-11-14T08:34:08.225Z,95596.65
2017-11-14T08:36:36.571Z,95595.62
2017-11-14T08:39:04.945Z,95593.89
2017-11-14T08:41:33.343Z,95587.45
2017-11-14T08:44:01.732Z,95588.29
2017-11-14T08:46:30.073Z,95595.09
2017-11-14T08:48:58.969Z,95586.70
2017-11-14T08:51:27.500Z,95587.02
2017-11-14T08:53:55.924Z,95589.94
2017-11-14T08:56:24.273Z,95584.74
2017-11-14T08:58:52.641Z,95575.24
2017-11-14T09:01:20.996Z,95576.24
2017-11-14T09:03:50.196Z,95570.14
2017-11-14T09:06:18.524Z,95568.22
2017-11-14T09:08:48.054Z,95568.69
2017-11-14T09:11:17.638Z,95580.70
2017-11-14T09:13:46.464Z,95584.47
2017-11-14T09:16:15.827Z,95589.38
2017-11-14T09:18:44.151Z,95592.59
2017-11-14T09:21:12.821Z,95583.94
2017-11-14T09:23:41.454Z,95585.28
2017-11-14T09:26:09.789Z,95590.64
2017-11-14T09:28:38.176Z,95582.11
2017-11-14T09:31:06.523Z,95589.94
2017-11-14T09:33:34.898Z,95588.11
2017-11-14T09:36:03.293Z,95591.52
2017-11-14T09:38:32.531Z,95595.03
2017-11-14T09:41:02.794Z,95595.83
2017-11-14T09:43:31.168Z,95593.27
2017-11-14T09:45:59.650Z,95595.89
2017-11-14T09:48:27.997Z,95601.78
2017-11-14T09:50:56.337Z,95605.10
2017-11-14T09:53:24.695Z,95606.89
2017-11-14T09:55:53.263Z,95612.02
2017-11-14T09:58:21.661Z,95611.50
2017-11-14T10:00:50.007Z,95611.00
2017-11-14T10:03:19.140Z,95614.81
2017-11-14T10:05:47.526Z,95613.00
2017-11-14T10:08:16.660Z,95619.27
2017-11-14T10:10:45.037Z,95615.81
2017-11-14T10:13:14.100Z,95614.62
2017-11-14T10:15:42.427Z,95613.38
2017-11-14T10:18:11.443Z,95618.45
2017-11-14T10:20:39.831Z,95616.45
2017-11-14T10:23:09.076Z,95617.14
2017-11-14T10:25:38.426Z,95615.62
2017-11-14T10:28:06.752Z,95612.41
2017-11-14T10:30:35.114Z,95616.96
2017-11-14T10:33:03.467Z,95616.16
2017-11-14T10:35:31.917Z,95621.20
2017-11-14T10:38:00.265Z,95626.36
2017-11-14T10:40:28.613Z,95624.86
2017-11-14T10:42:56.957Z,95628.29
2017-11-14T10:45:27.011Z,95629.05
2017-11-14T10:47:55.573Z,95627.02
2017-11-14T10:50:23.904Z,95632.26
2017-11-14T10:52:52.253Z,95624.25
2017-11-14T10:55:22.215Z,95632.83
2017-11-14T10:57:52.076Z,95631.67
2017-11-14T11:00:26.506Z,95636.32
2017-11-14T11:02:54.859Z,95630.93
2017-11-14T11:05:23.328Z,95633.70
2017-11-14T11:07:51.672Z,95630.16
2017-11-14T11:10:20.008Z,95639.78
2017-11-14T11:12:48.344Z,95631.42
2017-11-14T11:15:16.690Z,95632.81
2017-11-14T11:17:45.028Z,95626.56
2017-11-14T11:20:14.276Z,95620.47
2017-11-14T11:22:42.951Z,95619.91
2017-11-14T11:25:11.308Z,95607.50
2017-11-14T11:27:40.137Z,95599.63
2017-11-14T11:30:08.542Z,95592.70
2017-11-14T11:32:37.734Z,95591.17
2017-11-14T11:35:07.895Z,95584.45
2017-11-14T11:37:36.258Z,95580.80
2017-11-14T11:40:05.055Z,95582.80
2017-11-14T11:42:34.258Z,95579.55
2017-11-14T11:45:12.560Z,95575.58
2017-11-14T11:47:40.974Z,95577.13
2017-11-14T11:50:09.325Z,95587.11
2017-11-14T11:52:38.166Z,95589.41
2017-11-14T11:55:06.516Z,95587.80
2017-11-14T11:57:34.859Z,95583.98
2017-11-14T12:00:03.195Z,95581.02
2017-11-14T12:02:31.536Z,95587.05
2017-11-14T12:04:59.916Z,95579.70
2017-11-14T12:07:28.265Z,95587.36
2017-11-14T12:09:56.603Z,95582.02
2017-11-14T12:12:26.489Z,95583.61
2017-11-14T12:14:54.836Z,95578.41
2017-11-14T12:17:24.254Z,95579.06
2017-11-14T12:19:53.260Z,95574.23
2017-11-14T12:22:21.627Z,95576.95
2017-11-14T12:24:49.981Z,95587.73
2017-11-14T12:27:18.336Z,95582.78
2017-11-14T12:29:46.676Z,95581.40
2017-11-14T12:32:15.124Z,95572.59
2017-11-14T12:34:44.268Z,95556.42
2017-11-14T12:37:13.408Z,95568.31
2017-11-14T12:39:41.782Z,95570.36
2017-11-14T12:42:10.150Z,95572.56
2017-11-14T12:44:39.396Z,95570.49
2017-11-14T12:50:02.801Z,95561.92
2017-11-14T12:52:32.080Z,95554.30
2017-11-14T12:55:00.417Z,95541.67
2017-11-14T12:57:28.787Z,95525.02
2017-11-14T12:59:57.129Z,95527.82
2017-11-14T13:02:25.495Z,95524.47
2017-11-14T13:04:53.832Z,95518.78
2017-11-14T13:07:22.207Z,95517.33
2017-11-14T13:09:50.552Z,95513.28
2017-11-14T13:12:18.894Z,95516.59
2017-11-14T13:14:47.227Z,95513.74
2017-11-14T13:17:15.583Z,95509.80
2017-11-14T13:19:43.941Z,95525.81
2017-11-14T13:22:12.298Z,95518.16
2017-11-14T13:24:41.103Z,95526.61
2017-11-14T13:27:09.436Z,95531.42
2017-11-14T13:29:37.769Z,95530.30
2017-11-14T13:32:06.139Z,95535.56
2017-11-14T13:34:34.504Z,95544.33
2017-11-14T13:37:03.097Z,95542.16
2017-11-14T13:39:31.440Z,95545.66
2017-11-14T13:41:59.778Z,95534.58
2017-11-14T13:44:28.145Z,95532.80
2017-11-14T13:46:56.498Z,95533.98
2017-11-14T13:49:24.834Z,95532.28
2017-11-14T13:51:53.876Z,95532.56
2017-11-14T13:54:22.209Z,95533.43
2017-11-14T13:56:50.571Z,95539.65
2017-11-14T13:59:18.920Z,95530.47
2017-11-14T14:01:47.242Z,95531.05
2017-11-14T14:04:15.708Z,95525.95
2017-11-14T14:06:44.070Z,95519.43
2017-11-14T14:09:12.441Z,95518.66
2017-11-14T14:11:40.909Z,95526.45
2017-11-14T14:14:09.241Z,95525.23
2017-11-14T14:16:39.391Z,95523.24
2017-11-14T14:19:07.820Z,95526.52
2017-11-14T14:21:36.195Z,95534.52
2017-11-14T14:24:04.533Z,95541.29
2017-11-14T14:26:32.860Z,95536.80
2017-11-14T14:29:01.213Z,95543.29
2017-11-14T14:31:29.591Z,95541.22
2017-11-14T14:33:57.939Z,95542.53
2017-11-14T14:36:26.985Z,95551.92
2017-11-14T14:38:55.344Z,95554.77
2017-11-14T14:41:24.010Z,95542.92
2017-11-14T14:43:52.672Z,95543.41
2017-11-14T14:46:21.124Z,95542.22
2017-11-14T14:48:49.473Z,95537.98
2017-11-14T14:51:17.818Z,95533.83
2017-11-14T14:53:46.194Z,95537.77
2017-11-14T14:56:14.540Z,95540.33
2017-11-14T14:58:43.846Z,95546.07
2017-11-14T15:01:13.086Z,95535.28
2017-11-14T15:03:41.458Z,95531.52
2017-11-14T15:06:09.820Z,95531.77
2017-11-14T15:08:39.207Z,95539.45
2017-11-14T15:11:07.532Z,95540.41
2017-11-14T15:13:35.916Z,95545.05
2017-11-14T15:16:04.980Z,95539.41
2017-11-14T15:18:34.444Z,95539.59
2017-11-14T15:21:02.791Z,95543.45
2017-11-14T15:23:31.130Z,95540.01
2017-11-14T15:25:59.516Z,95532.20
2017-11-14T15:28:28.284Z,95538.69
2017-11-14T15:30:56.638Z,95545.23
2017-11-14T15:33:25.707Z,95546.75
2017-11-14T15:35:54.057Z,95539.04
2017-11-14T15:38:24.704Z,95535.16
2017-11-14T15:40:53.086Z,95544.22
2017-11-14T15:43:21.429Z,95540.81
2017-11-14T15:45:49.769Z,95547.59
2017-11-14T15:48:18.123Z,95548.73
2017-11-14T15:50:46.501Z,95559.36
2017-11-14T15:53:15.336Z,95551.41
2017-11-14T15:55:51.244Z,95547.45
2017-11-14T15:58:23.004Z,95548.95
2017-11-14T16:00:51.613Z,95549.77
2017-11-14T16:03:19.948Z,95551.17
2017-11-14T16:05:48.345Z,95561.75
2017-11-14T16:08:17.040Z,95558.70
2017-11-14T16:10:45.429Z,95556.05
2017-11-14T16:13:13.779Z,95560.55
2017-11-14T16:15:42.153Z,95560.89
2017-11-14T16:18:10.505Z,95564.24
2017-11-14T16:20:39.265Z,95573.25
2017-11-14T16:23:08.585Z,95578.48
2017-11-14T16:25:36.926Z,95580.72
2017-11-14T16:28:05.268Z,95577.69
2017-11-14T16:30:34.213Z,95584.29
2017-11-14T16:33:02.650Z,95576.06
2017-11-14T16:35:31.331Z,95571.69
2017-11-14T16:37:59.685Z,95579.52
2017-11-14T16:40:28.153Z,95578.52
2017-11-14T16:42:56.551Z,95593.22
2017-11-14T16:45:25.849Z,95601.20
2017-11-14T16:47:54.904Z,95587.02
2017-11-14T16:50:23.911Z,95595.23
2017-11-14T16:52:52.278Z,95593.98
2017-11-14T16:55:20.617Z,95592.12
2017-11-14T16:57:49.003Z,95588.96
2017-11-14T17:00:17.357Z,95586.11
2017-11-14T17:02:46.622Z,95593.72
2017-11-14T17:05:14.987Z,95595.09
2017-11-14T17:07:44.163Z,95592.17
2017-11-14T17:10:13.483Z,95596.63
2017-11-14T17:12:42.735Z,95602.77
2017-11-14T17:15:11.107Z,95601.23
2017-11-14T17:17:39.488Z,95592.37
2017-11-14T17:20:08.109Z,95596.60
2017-11-14T17:22:36.475Z,95603.64
2017-11-14T17:25:04.888Z,95606.85
2017-11-14T17:27:33.960Z,95604.53
2017-11-14T17:30:02.313Z,95600.79
2017-11-14T17:32:30.692Z,95594.46
2017-11-14T17:34:59.096Z,95591.18
2017-11-14T17:37:28.454Z,95600.94
2017-11-14T17:39:57.693Z,95607.69
2017-11-14T17:42:26.088Z,95606.97
2017-11-14T17:44:54.556Z,95606.23
2017-11-14T17:47:22.927Z,95600.03
2017-11-14T17:49:52.242Z,95607.88
2017-11-14T17:52:20.603Z,95600.38
2017-11-14T17:54:48.979Z,95599.05
2017-11-14T17:57:17.356Z,95603.84
2017-11-14T17:59:45.886Z,95608.18
2017-11-14T18:02:14.403Z,95605.08
2017-11-14T18:04:43.042Z,95604.69
2017-11-14T18:07:11.646Z,95607.52
2017-11-14T18:09:40.674Z,95617.41
2017-11-14T18:12:09.266Z,95617.34
2017-11-14T18:14:38.566Z,95615.57
2017-11-14T18:17:07.106Z,95618.20
2017-11-14T18:19:36.075Z,95617.00
2017-11-14T18:22:04.435Z,95625.52
2017-11-14T18:24:33.735Z,95633.83
2017-11-14T18:27:02.099Z,95634.12
2017-11-14T18:29:30.451Z,95630.81
2017-11-14T18:31:58.812Z,95638.03
2017-11-14T18:34:27.667Z,95638.68
2017-11-14T18:36:56.053Z,95636.02
2017-11-14T18:39:24.432Z,95643.19
2017-11-14T18:41:52.846Z,95647.81
2017-11-14T18:44:21.205Z,95650.50
2017-11-14T18:46:49.573Z,95649.30
2017-11-14T18:49:17.919Z,95644.69
2017-11-14T18:51:46.312Z,95644.81
2017-11-14T18:54:15.159Z,95646.04
2017-11-14T18:56:44.305Z,95652.72
2017-11-14T18:59:12.661Z,95648.53
2017-11-14T19:01:41.006Z,95650.03
2017-11-14T19:04:10.185Z,95647.73
2017-11-14T19:06:38.544Z,95654.34
2017-11-14T19:09:06.912Z,95648.97
2017-11-14T19:11:35.275Z,95643.23
2017-11-14T19:14:03.655Z,95650.30
2017-11-14T19:16:32.001Z,95648.85
2017-11-14T19:19:00.368Z,95649.52
2017-11-14T19:21:30.056Z,95652.72
2017-11-14T19:23:58.401Z,95652.64
2017-11-14T19:26:27.025Z,95651.44
2017-11-14T19:28:55.373Z,95655.68
2017-11-14T19:31:23.759Z,95661.98
2017-11-14T19:33:52.110Z,95667.84
2017-11-14T19:36:20.468Z,95671.67
2017-11-14T19:38:51.735Z,95669.72
2017-11-14T19:41:20.080Z,95667.13
2017-11-14T19:43:48.460Z,95678.41
2017-11-14T19:46:16.840Z,95672.52
2017-11-14T19:48:45.202Z,95678.83
2017-11-14T19:51:13.603Z,95684.05
2017-11-14T19:53:42.156Z,95682.25
2017-11-14T19:56:11.285Z,95680.23
2017-11-14T19:58:40.360Z,95683.39
2017-11-14T20:01:09.704Z,95683.64
2017-11-14T20:03:38.096Z,95688.79
2017-11-14T20:06:06.452Z,95696.58
2017-11-14T20:08:35.552Z,95696.97
2017-11-14T20:11:03.888Z,95696.50
2017-11-14T20:13:32.222Z,95697.02
2017-11-14T20:16:02.362Z,95693.68
2017-11-14T20:18:30.706Z,95692.69
2017-11-14T20:20:59.057Z,95689.52
2017-11-14T20:23:27.415Z,95693.72
2017-11-14T20:25:55.793Z,95691.89
2017-11-14T20:28:24.150Z,95690.61
2017-11-14T20:30:52.508Z,95687.47
2017-11-14T20:33:22.700Z,95689.50
2017-11-14T20:35:51.193Z,95686.83
2017-11-14T20:38:19.585Z,95686.61
2017-11-14T20:40:47.932Z,95685.80
2017-11-14T20:43:16.325Z,95694.70
2017-11-14T20:45:44.675Z,95694.08
2017-11-14T20:48:13.031Z,95697.17
2017-11-14T20:50:41.406Z,95703.13
2017-11-14T20:53:09.750Z,95698.83
2017-11-14T20:55:38.128Z,95699.70
2017-11-14T20:58:06.488Z,95703.48
2017-11-14T21:00:34.869Z,95695.98
2017-11-14T21:03:03.248Z,95691.67
2017-11-14T21:05:34.648Z,95689.80
2017-11-14T21:08:04.140Z,95698.16
2017-11-14T21:10:34.066Z,95692.31
2017-11-14T21:13:02.436Z,95695.05
2017-11-14T21:15:31.592Z,95696.44
2017-11-14T21:17:59.932Z,95693.52
2017-11-14T21:20:28.318Z,95690.83
2017-11-14T21:22:56.665Z,95687.83
2017-11-14T21:25:25.728Z,95697.57
2017-11-14T21:27:54.108Z,95698.16
2017-11-14T21:30:22.661Z,95704.69
2017-11-14T21:32:51.033Z,95700.81
2017-11-14T21:35:23.312Z,95699.77
2017-11-14T21:37:51.666Z,95706.20
2017-11-14T21:40:20.032Z,95706.58
2017-11-14T21:42:48.525Z,95702.81
2017-11-14T21:45:16.874Z,95706.58
2017-11-14T21:47:45.241Z,95702.66
2017-11-14T21:50:13.615Z,95702.39
2017-11-14T21:52:41.968Z,95703.63
2017-11-14T21:55:10.319Z,95700.47
2017-11-14T21:57:39.036Z,95700.00
2017-11-14T22:00:07.416Z,95693.48
2017-11-14T22:02:35.773Z,95705.31
2017-11-14T22:05:04.127Z,95697.73
2017-11-14T22:07:32.505Z,95705.31
2017-11-14T22:10:05.942Z,95698.88
2017-11-14T22:12:34.307Z,95701.96
2017-11-14T22:15:02.917Z,95702.48
2017-11-14T22:17:31.267Z,95696.71
2017-11-14T22:19:59.619Z,95700.31
2017-11-14T22:22:28.697Z,95694.39
2017-11-14T22:24:57.076Z,95699.54
2017-11-14T22:27:26.584Z,95701.61
2017-11-14T22:29:55.745Z,95701.73
2017-11-14T22:32:24.100Z,95704.92
2017-11-14T22:34:53.238Z,95706.34
2017-11-14T22:37:21.786Z,95707.31
2017-11-14T22:39:50.145Z,95708.50
2017-11-14T22:42:18.955Z,95710.51
2017-11-14T22:44:47.314Z,95707.80
2017-11-14T22:47:15.669Z,95712.64
2017-11-14T22:49:44.054Z,95713.02
2017-11-14T22:52:12.478Z,95706.73
2017-11-14T22:54:40.842Z,95707.80
2017-11-14T22:57:09.206Z,95707.17
2017-11-14T22:59:37.557Z,95711.40
2017-11-14T23:02:05.945Z,95709.63
2017-11-14T23:04:34.305Z,95714.28
2017-11-14T23:07:02.659Z,95718.33
2017-11-14T23:09:31.009Z,95714.82
2017-11-14T23:11:59.378Z,95723.73
2017-11-14T23:14:27.744Z,95717.01
2017-11-14T23:16:56.894Z,95719.95
2017-11-14T23:19:25.241Z,95722.57
2017-11-14T23:21:53.601Z,95722.61
2017-11-14T23:24:22.996Z,95726.87
2017-11-14T23:26:51.362Z,95723.97
2017-11-14T23:29:20.641Z,95724.30
2017-11-14T23:31:50.129Z,95724.64
2017-11-14T23:34:18.485Z,95728.21
2017-11-14T23:36:46.847Z,95723.09
2017-11-14T23:39:15.220Z,95725.56
2017-11-14T23:41:43.593Z,95723.89
2017-11-14T23:44:11.952Z,95720.33
2017-11-14T23:46:40.301Z,95720.56
2017-11-14T23:49:08.653Z,95717.75
2017-11-14T23:51:37.002Z,95718.41
2017-11-14T23:54:05.365Z,95717.87
2017-11-14T23:56:33.720Z,95723.56
2017-11-14T23:59:02.089Z,95721.59
